Time;durP1;ratioP1;P1;durP2;ratioP2;P2;SDS_P1;SDS_P2;PMS_P1;PMS_P2;Temp;Humidity;BMP_temperature;BMP_pressure;BME280_temperature;BME280_humidity;BME280_pressure;Samples;Min_cycle;Max_cycle;Signal;HPM_P1;HPM_P2
2022/04/23 14:01:07;;;;;;;4.75;4.35;;;21.50;68.60;;;;;;3401914;27;86848;-96
2022/04/23 14:14:41;;;;;;;16.15;10.05;;;21.10;69.90;;;;;;5998400;29;86898;-96
2022/04/23 14:20:48;;;;;;;14.23;8.77;;;21.00;70.50;;;;;;6018269;28;87354;-69
2022/04/23 14:23:50;;;;;;;12.70;8.75;;;21.00;70.30;;;;;;6032140;29;89278;-69
2022/04/23 14:26:52;;;;;;;9.70;7.68;;;21.10;70.40;;;;;;6024521;28;89146;-69
2022/04/23 14:29:58;;;;;;;12.27;7.80;;;21.10;70.20;;;;;;6014932;29;89081;-69
2022/04/23 14:33:00;;;;;;;9.00;7.03;;;21.20;70.10;;;;;;6011525;29;88327;-70
2022/04/23 14:36:03;;;;;;;9.35;7.05;;;21.20;70.00;;;;;;6019984;28;89145;-69
2022/04/23 14:39:06;;;;;;;10.75;7.07;;;21.30;69.90;;;;;;6014661;29;87988;-69
2022/04/23 14:42:10;;;;;;;8.65;6.95;;;21.30;69.90;;;;;;6011562;28;89937;-70
2022/04/23 14:45:17;;;;;;;8.98;6.78;;;21.30;70.00;;;;;;6010492;29;89134;-68
2022/04/23 14:48:19;;;;;;;9.10;7.05;;;21.30;70.00;;;;;;6014500;29;89022;-69
2022/04/23 14:54:42;;;;;;;9.95;6.60;;;21.40;70.00;;;;;;6000789;29;87488;-69
2022/04/23 14:57:45;;;;;;;7.25;6.53;;;21.40;70.00;;;;;;6019126;29;89182;-69
2022/04/23 15:00:47;;;;;;;11.02;7.20;;;21.40;70.10;;;;;;6013342;29;89236;-69
2022/04/23 15:03:49;;;;;;;9.60;6.60;;;21.40;70.10;;;;;;6015911;29;87866;-70
2022/04/23 15:06:54;;;;;;;9.30;7.03;;;21.40;70.50;;;;;;6012828;29;89109;-70
2022/04/23 15:09:55;;;;;;;10.25;8.35;;;21.40;70.50;;;;;;6027260;28;89465;-70
2022/04/23 15:13:03;;;;;;;8.38;7.40;;;21.40;70.70;;;;;;6013604;29;89991;-68
2022/04/23 15:16:06;;;;;;;11.38;7.43;;;21.40;70.90;;;;;;6011957;29;89074;-69
2022/04/23 15:19:08;;;;;;;10.27;6.82;;;21.40;70.80;;;;;;6019259;29;89033;-69
2022/04/23 15:22:12;;;;;;;9.98;6.90;;;21.40;70.60;;;;;;6029522;28;89144;-69
2022/04/23 15:25:15;;;;;;;7.43;6.55;;;21.40;70.60;;;;;;6026526;28;89103;-69
2022/04/23 15:28:17;;;;;;;8.95;7.05;;;21.50;70.60;;;;;;6019900;29;89283;-69
2022/04/23 15:31:19;;;;;;;8.70;7.22;;;21.50;70.60;;;;;;6020577;29;89456;-69
2022/04/23 15:34:22;;;;;;;11.15;7.07;;;21.50;70.60;;;;;;6028507;29;87150;-69
2022/04/23 15:37:25;;;;;;;14.32;7.28;;;21.50;70.70;;;;;;6027425;28;89040;-69
2022/04/23 15:40:29;;;;;;;8.70;6.82;;;21.50;70.70;;;;;;6020189;29;89077;-69
2022/04/23 15:43:31;;;;;;;9.63;6.45;;;21.50;70.70;;;;;;6018784;29;90112;-69
2022/04/23 15:46:33;;;;;;;8.93;7.13;;;21.50;70.80;;;;;;6026193;28;89203;-69
2022/04/23 15:49:35;;;;;;;9.93;7.00;;;21.50;70.80;;;;;;6027370;29;88948;-69
2022/04/23 15:52:39;;;;;;;10.30;6.70;;;21.50;70.80;;;;;;6021345;29;88103;-68
2022/04/23 15:55:41;;;;;;;9.15;6.70;;;21.50;70.80;;;;;;6019358;28;89014;-68
2022/04/23 15:58:43;;;;;;;7.97;7.18;;;21.50;70.70;;;;;;6024719;29;89225;-70
2022/04/23 16:01:45;;;;;;;8.98;6.22;;;21.50;70.70;;;;;;6027610;28;89014;-69
2022/04/23 16:04:47;;;;;;;7.30;6.40;;;21.50;70.60;;;;;;6017632;29;88354;-69
2022/04/23 16:07:51;;;;;;;7.95;6.53;;;21.50;70.60;;;;;;6026544;29;89002;-69
2022/04/23 16:10:53;;;;;;;10.18;6.57;;;21.50;71.50;;;;;;6014813;29;89073;-70
2022/04/23 16:13:55;;;;;;;9.48;6.55;;;21.50;70.60;;;;;;6020093;29;89018;-68
2022/04/23 16:16:57;;;;;;;7.38;6.57;;;21.50;70.60;;;;;;6030070;29;89076;-67
2022/04/23 16:19:59;;;;;;;8.88;6.85;;;21.50;70.60;;;;;;6019039;28;89063;-69
2022/04/23 16:23:03;;;;;;;7.38;6.55;;;21.50;70.60;;;;;;6027375;28;88042;-69
2022/04/23 16:26:06;;;;;;;6.97;6.30;;;21.50;70.60;;;;;;6023100;29;87696;-71
2022/04/23 16:29:08;;;;;;;8.32;6.43;;;21.60;70.80;;;;;;6025151;29;88871;-69
2022/04/23 16:32:10;;;;;;;11.15;6.97;;;21.50;70.60;;;;;;6025134;28;89102;-70
2022/04/23 16:35:12;;;;;;;8.73;6.20;;;21.50;70.70;;;;;;6020252;28;88368;-68
2022/04/23 16:48:14;;;;;;;7.97;7.07;;;21.50;71.00;;;;;;6030421;28;87692;-69
2022/04/23 16:51:16;;;;;;;7.40;6.70;;;21.50;71.10;;;;;;6020328;29;89120;-69
2022/04/23 16:54:19;;;;;;;9.20;6.50;;;21.50;71.10;;;;;;6027627;28;89017;-69
2022/04/23 16:57:21;;;;;;;8.15;7.30;;;21.50;71.10;;;;;;6036105;28;89089;-69
2022/04/23 17:00:23;;;;;;;8.90;6.68;;;21.50;71.10;;;;;;6015327;29;89011;-69
2022/04/23 17:03:26;;;;;;;8.35;7.05;;;21.50;71.00;;;;;;6014751;29;89135;-68
2022/04/23 17:06:27;;;;;;;8.88;6.63;;;21.60;71.10;;;;;;6015193;29;88404;-69
2022/04/23 17:09:31;;;;;;;7.53;6.70;;;21.50;71.00;;;;;;6014803;29;89073;-68
2022/04/23 17:12:34;;;;;;;7.68;6.65;;;21.60;71.10;;;;;;6015604;29;89402;-69
2022/04/23 17:15:36;;;;;;;9.63;6.85;;;21.60;71.30;;;;;;6012879;29;90282;-69
2022/04/23 17:18:41;;;;;;;8.90;7.22;;;21.60;71.40;;;;;;6014028;29;89078;-70
2022/04/23 17:21:44;;;;;;;10.93;7.70;;;21.60;71.50;;;;;;6013333;29;88055;-71
2022/04/23 17:24:48;;;;;;;9.07;7.07;;;21.60;71.80;;;;;;6012980;29;89192;-70
2022/04/23 17:27:50;;;;;;;9.63;7.05;;;21.60;72.10;;;;;;6013769;29;89085;-69
2022/04/23 17:30:52;;;;;;;10.43;6.82;;;21.60;72.00;;;;;;6014416;29;89129;-70
2022/04/23 17:33:54;;;;;;;8.85;6.80;;;21.60;71.80;;;;;;6014558;29;89088;-69
2022/04/23 17:36:56;;;;;;;10.43;7.18;;;21.60;71.80;;;;;;6017796;29;88773;-69
2022/04/23 17:40:00;;;;;;;9.93;6.88;;;21.60;72.00;;;;;;6014073;29;88538;-67
2022/04/23 17:43:02;;;;;;;8.90;6.97;;;21.60;72.30;;;;;;6013920;29;89151;-69
2022/04/23 17:46:04;;;;;;;10.38;7.53;;;21.60;72.70;;;;;;6013187;29;90024;-69
2022/04/23 17:49:06;;;;;;;11.95;7.55;;;21.70;73.90;;;;;;6003559;29;88272;-69
2022/04/23 17:52:09;;;;;;;11.02;7.43;;;21.90;72.90;;;;;;5995949;29;88202;-70
2022/04/23 17:55:12;;;;;;;13.23;8.23;;;22.30;71.90;;;;;;6011297;29;89028;-66
2022/04/23 17:58:14;;;;;;;10.02;7.38;;;22.50;71.10;;;;;;6010886;29;88962;-69
2022/04/23 18:10:51;;;;;;;11.30;8.07;;;22.50;70.80;;;;;;5983012;29;89045;-69
2022/04/23 18:13:53;;;;;;;9.52;8.30;;;22.50;70.90;;;;;;5957069;29;89107;-69
2022/04/23 18:16:56;;;;;;;10.63;8.00;;;22.50;71.00;;;;;;5954740;29;88918;-69
2022/04/23 18:19:59;;;;;;;10.57;7.40;;;22.50;71.00;;;;;;5946164;29;89388;-68
2022/04/23 18:23:01;;;;;;;9.27;7.30;;;22.50;70.90;;;;;;5944531;29;89202;-69
2022/04/23 18:26:05;;;;;;;9.98;7.47;;;22.50;70.90;;;;;;5944223;29;89023;-70
2022/04/23 18:29:07;;;;;;;9.10;7.80;;;22.50;70.80;;;;;;5943726;29;89239;-68
2022/04/23 18:35:31;;;;;;;7.95;7.25;;;22.50;71.00;;;;;;5958070;29;90285;-67
2022/04/23 18:38:33;;;;;;;9.80;7.70;;;22.40;70.90;;;;;;5944986;29;88370;-69
2022/04/23 18:41:36;;;;;;;10.25;7.40;;;22.40;70.90;;;;;;5944515;29;88810;-69
2022/04/23 18:44:39;;;;;;;9.23;7.43;;;22.40;70.90;;;;;;5942884;29;89028;-68
2022/04/23 18:47:42;;;;;;;8.43;6.95;;;22.40;71.00;;;;;;5931914;29;89880;-69
2022/04/23 18:50:44;;;;;;;8.10;6.78;;;22.30;71.00;;;;;;5941579;29;89138;-70
2022/04/23 18:53:46;;;;;;;9.55;6.95;;;22.30;71.00;;;;;;5958716;29;88967;-69
2022/04/23 18:56:49;;;;;;;8.70;6.90;;;22.30;71.00;;;;;;5941392;29;89339;-69
2022/04/23 18:59:51;;;;;;;7.22;6.53;;;22.30;71.00;;;;;;5941073;29;89370;-69
2022/04/23 19:02:53;;;;;;;8.70;6.72;;;22.20;70.80;;;;;;5940559;29;88968;-69
2022/04/23 19:06:01;;;;;;;8.80;6.78;;;22.20;70.80;;;;;;5958760;29;89466;-69
2022/04/23 19:09:03;;;;;;;8.00;6.32;;;22.20;70.80;;;;;;5964838;29;87174;-69
2022/04/23 19:12:08;;;;;;;7.68;6.85;;;22.20;70.80;;;;;;5962634;29;89054;-69
2022/04/23 19:15:10;;;;;;;6.70;6.00;;;22.10;70.60;;;;;;5941456;29;88009;-69
2022/04/23 19:18:13;;;;;;;9.75;6.38;;;22.10;70.60;;;;;;5951969;29;90259;-68
2022/04/23 19:28:03;;;;;;;9.55;6.20;;;22.10;70.60;;;;;;5942057;29;87583;-69
2022/04/23 19:31:07;;;;;;;8.38;6.30;;;22.10;70.60;;;;;;5941204;29;88170;-69
2022/04/23 19:34:11;;;;;;;7.20;6.38;;;22.10;70.50;;;;;;5941273;29;89084;-69
2022/04/23 19:37:14;;;;;;;6.55;5.88;;;22.10;70.50;;;;;;5940544;29;89119;-68
2022/04/23 19:40:17;;;;;;;6.63;5.97;;;22.10;70.50;;;;;;5941270;29;87094;-69
2022/04/23 19:43:23;;;;;;;7.03;6.35;;;22.10;70.40;;;;;;5964312;29;87374;-69
2022/04/23 19:46:27;;;;;;;7.47;6.68;;;22.00;70.30;;;;;;5964286;29;89413;-68
2022/04/23 19:49:29;;;;;;;8.07;6.03;;;22.00;70.40;;;;;;5963394;29;90174;-69
2022/04/23 19:52:31;;;;;;;8.00;5.70;;;22.00;70.30;;;;;;5963372;29;89428;-69
2022/04/23 19:55:33;;;;;;;8.13;5.82;;;22.00;70.30;;;;;;5944867;29;89499;-69
2022/04/23 19:58:40;;;;;;;7.45;6.30;;;22.00;70.30;;;;;;5943392;29;89022;-70
2022/04/23 20:01:43;;;;;;;8.25;5.90;;;22.00;70.30;;;;;;5942344;29;89105;-69
2022/04/23 20:04:45;;;;;;;6.40;5.60;;;22.00;70.30;;;;;;5944037;29;89259;-69
2022/04/23 20:07:49;;;;;;;6.93;5.18;;;22.00;70.30;;;;;;5944876;29;89530;-69
2022/04/23 20:10:52;;;;;;;7.38;5.72;;;22.00;70.30;;;;;;5945839;29;88441;-69
2022/04/23 20:13:55;;;;;;;6.95;6.07;;;22.00;70.30;;;;;;5942158;29;90265;-69
2022/04/23 20:16:57;;;;;;;6.40;5.80;;;22.00;70.30;;;;;;5941877;29;89528;-68
2022/04/23 20:19:59;;;;;;;6.22;5.63;;;22.00;70.30;;;;;;5941905;29;90114;-69
2022/04/23 20:23:02;;;;;;;7.72;5.35;;;22.00;70.40;;;;;;5942217;29;89403;-69
2022/04/23 20:26:05;;;;;;;6.20;5.60;;;22.00;70.30;;;;;;5942194;29;88048;-69
2022/04/23 20:29:09;;;;;;;6.85;5.82;;;22.00;70.50;;;;;;5944298;29;88841;-68
2022/04/23 20:32:12;;;;;;;5.95;5.35;;;22.00;70.50;;;;;;5942371;29;88092;-70
2022/04/23 20:38:36;;;;;;;6.70;5.43;;;22.00;70.70;;;;;;5941447;29;87504;-70
2022/04/23 20:41:40;;;;;;;6.20;5.60;;;22.00;70.70;;;;;;5943047;29;87316;-71
2022/04/23 20:44:45;;;;;;;7.00;5.80;;;22.00;70.90;;;;;;5939387;29;87760;-70
2022/04/23 20:47:47;;;;;;;6.28;5.35;;;22.00;71.10;;;;;;5942191;29;88973;-69
2022/04/23 20:50:50;;;;;;;5.85;5.32;;;22.00;71.30;;;;;;5942263;29;89025;-69
2022/04/23 20:53:53;;;;;;;7.30;5.93;;;22.00;71.30;;;;;;5942190;29;88009;-69
2022/04/23 20:56:57;;;;;;;5.97;5.38;;;22.00;71.40;;;;;;5956136;29;87966;-70
2022/04/23 21:00:01;;;;;;;6.15;5.53;;;22.00;71.50;;;;;;5941953;29;89382;-69
2022/04/23 21:03:05;;;;;;;6.30;5.70;;;22.00;71.40;;;;;;5942816;29;87949;-69
2022/04/23 21:06:10;;;;;;;6.38;5.80;;;22.00;71.30;;;;;;5942045;29;88063;-71
2022/04/23 21:09:13;;;;;;;6.43;5.82;;;22.00;71.30;;;;;;5958386;29;88070;-68
2022/04/23 21:12:17;;;;;;;7.97;5.80;;;22.10;71.30;;;;;;5942213;29;87609;-69
2022/04/23 21:15:22;;;;;;;6.85;5.70;;;22.00;72.20;;;;;;5943198;29;89282;-69
2022/04/23 21:18:24;;;;;;;6.40;5.80;;;22.00;71.30;;;;;;5961982;29;87898;-67
2022/04/23 21:21:26;;;;;;;6.35;5.45;;;22.00;71.60;;;;;;5953570;29;89989;-70
2022/04/23 21:24:28;;;;;;;7.82;5.70;;;22.00;71.50;;;;;;5942412;29;89466;-68
2022/04/23 21:27:30;;;;;;;6.13;5.53;;;22.00;71.60;;;;;;5942397;29;89198;-69
2022/04/23 21:30:34;;;;;;;6.75;5.85;;;22.00;71.60;;;;;;5943142;29;89150;-68
2022/04/23 21:33:36;;;;;;;8.20;5.65;;;22.00;71.60;;;;;;5944014;29;87936;-69
2022/04/23 21:36:39;;;;;;;5.95;5.18;;;22.00;71.50;;;;;;5943476;29;89096;-69
2022/04/23 21:39:42;;;;;;;6.50;5.70;;;22.00;71.30;;;;;;5942216;29;89492;-69
2022/04/23 21:46:05;;;;;;;7.10;5.72;;;22.00;71.30;;;;;;5950806;29;87979;-69
2022/04/23 21:49:07;;;;;;;6.80;5.28;;;21.90;71.30;;;;;;5941567;29;89482;-69
2022/04/23 21:52:09;;;;;;;6.07;5.53;;;22.00;71.50;;;;;;5942239;29;89220;-69
2022/04/23 21:55:11;;;;;;;6.20;5.50;;;22.00;71.40;;;;;;5942778;29;89133;-69
2022/04/23 21:58:13;;;;;;;9.70;6.28;;;21.90;71.60;;;;;;5941959;29;89397;-69
2022/04/23 22:01:19;;;;;;;7.75;5.82;;;21.90;71.80;;;;;;5942607;29;89115;-68
2022/04/23 22:04:22;;;;;;;9.10;6.78;;;22.00;72.10;;;;;;5942394;29;89114;-70
2022/04/23 22:07:24;;;;;;;10.38;6.65;;;22.00;72.20;;;;;;5942633;29;88397;-69
2022/04/23 22:10:26;;;;;;;8.57;5.93;;;22.00;72.10;;;;;;5942634;29;87972;-69
2022/04/23 22:13:28;;;;;;;11.40;6.57;;;21.90;71.90;;;;;;5942484;29;88810;-69
2022/04/23 22:16:32;;;;;;;7.97;6.07;;;22.00;72.00;;;;;;5946503;29;89131;-69
2022/04/23 22:19:34;;;;;;;9.23;6.40;;;21.90;71.80;;;;;;5957804;29;89479;-69
2022/04/23 22:22:37;;;;;;;10.68;6.22;;;21.90;72.00;;;;;;5941874;29;90309;-69
2022/04/23 22:25:39;;;;;;;9.10;6.43;;;21.90;72.30;;;;;;5957042;29;88840;-69
2022/04/23 22:28:41;;;;;;;8.50;6.60;;;21.90;72.10;;;;;;5956435;29;89134;-69
2022/04/23 22:31:45;;;;;;;7.15;5.65;;;21.90;72.00;;;;;;5949809;29;89219;-70
2022/04/23 22:34:47;;;;;;;9.95;6.22;;;21.90;72.00;;;;;;5949871;29;89126;-69
2022/04/23 22:37:49;;;;;;;8.07;6.10;;;22.00;72.00;;;;;;5956987;29;89384;-69
2022/04/23 22:40:51;;;;;;;8.15;6.22;;;21.90;71.90;;;;;;5957229;29;89134;-70
2022/04/23 22:43:53;;;;;;;7.50;5.80;;;21.90;71.80;;;;;;5956355;29;88418;-69
2022/04/23 22:46:57;;;;;;;9.73;6.38;;;22.00;72.00;;;;;;5957368;29;89203;-69
2022/04/23 22:49:59;;;;;;;7.38;5.68;;;21.90;72.10;;;;;;5930427;29;89462;-69
2022/04/23 22:53:02;;;;;;;6.45;5.85;;;21.90;72.20;;;;;;5948019;29;90377;-69
2022/04/23 22:56:04;;;;;;;9.48;6.30;;;21.90;72.10;;;;;;5951973;29;88972;-70
2022/04/23 22:59:06;;;;;;;8.15;6.30;;;21.90;72.60;;;;;;5949394;29;89116;-69
2022/04/23 23:02:10;;;;;;;7.65;5.90;;;21.90;72.40;;;;;;5952565;29;89050;-69
2022/04/23 23:05:12;;;;;;;8.38;6.47;;;21.90;72.30;;;;;;5947532;29;88991;-69
2022/04/23 23:08:14;;;;;;;9.27;7.00;;;21.90;72.30;;;;;;5951909;29;89241;-70
2022/04/23 23:11:16;;;;;;;11.02;6.50;;;21.90;72.20;;;;;;5950728;29;89189;-69
2022/04/23 23:14:18;;;;;;;10.05;6.15;;;21.90;72.30;;;;;;5953575;29;88392;-69
2022/04/23 23:17:22;;;;;;;8.10;6.30;;;21.90;72.30;;;;;;5948509;29;89401;-69
